Time;durP1;ratioP1;P1;durP2;ratioP2;P2;SDS_P1;SDS_P2;PMS_P1;PMS_P2;Temp;Humidity;BMP_temperature;BMP_pressure;BME280_temperature;BME280_humidity;BME280_pressure;Samples;Min_cycle;Max_cycle;Signal;HPM_P1;HPM_P2
2020/12/04 00:01:41;;;;;;;42.27;18.80;;;-2.60;99.90;;;;;;5026224;28;20044;-82
2020/12/04 00:04:07;;;;;;;39.70;17.13;;;-2.50;99.90;;;;;;5025756;28;20075;-82
2020/12/04 00:06:33;;;;;;;39.77;18.10;;;-2.50;99.90;;;;;;5029461;28;20033;-83
2020/12/04 00:09:00;;;;;;;42.80;18.87;;;-2.50;99.90;;;;;;5053655;28;20100;-85
2020/12/04 00:11:26;;;;;;;40.63;17.60;;;-2.50;99.90;;;;;;5042093;28;20960;-81
2020/12/04 00:13:52;;;;;;;40.70;18.23;;;-2.40;99.90;;;;;;5019433;28;20438;-82
2020/12/04 00:16:18;;;;;;;43.30;19.33;;;-2.40;99.90;;;;;;5051513;28;20040;-83
2020/12/04 00:18:44;;;;;;;42.73;17.70;;;-2.40;99.90;;;;;;5038872;28;20057;-82
2020/12/04 00:21:12;;;;;;;37.30;16.67;;;-2.40;99.90;;;;;;5072874;28;20060;-83
2020/12/04 00:23:37;;;;;;;37.20;15.83;;;-2.40;99.90;;;;;;5060126;28;20033;-82
2020/12/04 00:26:03;;;;;;;43.03;17.77;;;-2.30;99.90;;;;;;5035381;28;20029;-82
2020/12/04 00:28:29;;;;;;;35.83;15.57;;;-2.40;99.90;;;;;;5038947;28;20025;-80
2020/12/04 00:30:54;;;;;;;41.10;16.43;;;-2.40;99.90;;;;;;5032927;28;20033;-80
2020/12/04 00:33:20;;;;;;;38.23;16.83;;;-2.40;99.90;;;;;;5045455;28;20037;-82
2020/12/04 00:35:45;;;;;;;41.97;17.47;;;-2.30;99.90;;;;;;5026104;28;20025;-81
2020/12/04 00:38:12;;;;;;;40.23;18.07;;;-2.30;99.90;;;;;;5051334;28;20024;-83
2020/12/04 00:40:38;;;;;;;37.63;17.03;;;-2.40;99.90;;;;;;5051752;28;20033;-82
2020/12/04 00:43:03;;;;;;;40.63;17.30;;;-2.40;99.90;;;;;;5051353;28;20545;-83
2020/12/04 00:45:29;;;;;;;38.13;17.43;;;-2.40;99.90;;;;;;5053489;28;20036;-83
2020/12/04 00:47:55;;;;;;;36.03;16.97;;;-2.40;99.90;;;;;;5038642;28;20020;-84
2020/12/04 00:50:20;;;;;;;39.97;18.00;;;-2.40;99.90;;;;;;5037332;28;20033;-82
2020/12/04 00:52:46;;;;;;;31.87;14.60;;;-2.40;99.90;;;;;;5037782;28;20139;-81
2020/12/04 00:55:12;;;;;;;39.37;16.77;;;-2.30;99.90;;;;;;5031363;28;20116;-82
2020/12/04 00:57:37;;;;;;;39.13;16.60;;;-2.30;99.90;;;;;;5032833;28;20442;-81
2020/12/04 01:00:04;;;;;;;37.83;16.57;;;-2.20;99.90;;;;;;5034632;28;20036;-82
2020/12/04 01:02:30;;;;;;;37.23;17.07;;;-2.20;99.90;;;;;;5046081;28;20029;-81
2020/12/04 01:04:55;;;;;;;36.50;16.77;;;-2.20;99.90;;;;;;5045408;28;20029;-82
2020/12/04 01:07:21;;;;;;;34.43;15.90;;;-2.20;99.90;;;;;;5061446;28;20040;-82
2020/12/04 01:09:47;;;;;;;41.30;18.27;;;-2.20;99.90;;;;;;5020729;28;20032;-82
2020/12/04 01:12:13;;;;;;;35.43;16.90;;;-2.20;99.90;;;;;;5034446;28;20476;-83
2020/12/04 01:14:39;;;;;;;38.17;17.43;;;-2.10;99.90;;;;;;5047933;28;20052;-83
2020/12/04 01:17:05;;;;;;;37.60;16.77;;;-2.10;99.90;;;;;;5031543;28;20033;-82
2020/12/04 01:19:31;;;;;;;32.93;16.13;;;-2.10;99.90;;;;;;5049851;28;20476;-82
2020/12/04 01:21:56;;;;;;;38.03;17.30;;;-2.10;99.90;;;;;;5043589;28;20424;-82
2020/12/04 01:24:22;;;;;;;37.80;16.90;;;-2.10;99.90;;;;;;5043542;28;20032;-83
2020/12/04 01:26:47;;;;;;;39.13;16.93;;;-2.10;99.90;;;;;;5033398;28;20043;-83
2020/12/04 01:29:13;;;;;;;36.87;17.00;;;-2.10;99.90;;;;;;5025150;28;20030;-82
2020/12/04 01:31:39;;;;;;;39.87;17.43;;;-2.20;99.90;;;;;;5054166;28;20082;-82
2020/12/04 01:34:04;;;;;;;39.33;17.00;;;-2.20;99.90;;;;;;5032244;28;20021;-82
2020/12/04 01:36:30;;;;;;;38.00;17.53;;;-2.20;99.90;;;;;;5054614;28;20026;-81
2020/12/04 01:38:57;;;;;;;40.23;16.83;;;-2.20;99.90;;;;;;5048518;28;20033;-82
2020/12/04 01:41:23;;;;;;;44.77;18.50;;;-2.20;99.90;;;;;;5020626;28;20155;-82
2020/12/04 01:43:48;;;;;;;37.20;16.07;;;-2.20;99.90;;;;;;5037212;28;20492;-82
2020/12/04 01:46:14;;;;;;;35.10;16.53;;;-2.20;99.90;;;;;;5037193;28;20017;-82
2020/12/04 01:48:43;;;;;;;38.70;17.63;;;-2.20;99.90;;;;;;5031157;28;20029;-81
2020/12/04 01:51:09;;;;;;;37.63;16.25;;;-2.20;99.90;;;;;;5032328;28;20021;-81
2020/12/04 01:53:36;;;;;;;37.93;16.23;;;-2.20;99.90;;;;;;5035911;28;20373;-82
2020/12/04 01:56:02;;;;;;;37.97;16.50;;;-2.30;99.90;;;;;;5057765;28;20033;-82
2020/12/04 01:58:28;;;;;;;37.03;17.20;;;-2.30;99.90;;;;;;5025305;28;20033;-82
2020/12/04 02:00:55;;;;;;;38.60;16.87;;;-2.30;99.90;;;;;;5024475;28;20045;-81
2020/12/04 02:03:20;;;;;;;39.43;17.17;;;-2.30;99.90;;;;;;5046876;28;20105;-82
2020/12/04 02:05:57;;;;;;;35.67;16.47;;;-2.30;99.90;;;;;;5035961;28;20090;-82
2020/12/04 02:08:45;;;;;;;39.20;17.00;;;-2.30;99.90;;;;;;5053880;28;20025;-82
2020/12/04 02:11:22;;;;;;;38.30;17.47;;;-2.30;99.90;;;;;;5050851;28;20475;-82
2020/12/04 02:13:51;;;;;;;36.90;16.37;;;-2.40;99.90;;;;;;5047202;28;20035;-82
2020/12/04 02:16:21;;;;;;;39.20;16.58;;;-2.40;99.90;;;;;;5036347;28;20410;-82
2020/12/04 02:18:49;;;;;;;41.43;17.60;;;-2.40;99.90;;;;;;5044774;28;20043;-80
2020/12/04 02:21:15;;;;;;;38.47;16.27;;;-2.40;99.90;;;;;;5047665;28;20049;-83
2020/12/04 02:23:45;;;;;;;39.60;16.83;;;-2.40;99.90;;;;;;5020246;28;20086;-82
2020/12/04 02:26:15;;;;;;;37.83;17.83;;;-2.40;99.90;;;;;;5032971;28;20365;-82
2020/12/04 02:28:40;;;;;;;38.60;17.00;;;-2.40;99.90;;;;;;5042929;28;20037;-84
2020/12/04 02:31:07;;;;;;;38.33;16.53;;;-2.40;99.90;;;;;;5051223;28;20033;-82
2020/12/04 02:33:34;;;;;;;42.00;17.53;;;-2.50;99.90;;;;;;5028076;28;20026;-81
2020/12/04 02:35:59;;;;;;;33.23;16.63;;;-2.40;99.90;;;;;;5040368;28;20029;-85
2020/12/04 02:38:26;;;;;;;37.17;17.20;;;-2.40;99.90;;;;;;5054763;28;20031;-82
2020/12/04 02:40:52;;;;;;;40.40;17.40;;;-2.40;99.90;;;;;;5037586;28;20044;-82
2020/12/04 02:43:19;;;;;;;38.37;16.80;;;-2.50;99.90;;;;;;5036108;28;20021;-82
2020/12/04 02:45:45;;;;;;;39.73;17.07;;;-2.50;99.90;;;;;;5038705;28;20033;-84
2020/12/04 02:48:11;;;;;;;35.13;16.70;;;-2.50;99.90;;;;;;5034582;28;20044;-82
2020/12/04 02:50:37;;;;;;;38.03;16.97;;;-2.40;99.90;;;;;;5028378;28;20037;-82
2020/12/04 02:53:04;;;;;;;37.87;16.70;;;-2.40;99.90;;;;;;5036828;28;20056;-82
2020/12/04 02:55:30;;;;;;;37.97;17.07;;;-2.50;99.90;;;;;;5046519;28;20458;-82
2020/12/04 02:57:55;;;;;;;38.17;17.70;;;-2.50;99.90;;;;;;5056014;28;20028;-82
2020/12/04 03:00:22;;;;;;;38.87;16.67;;;-2.50;99.90;;;;;;5056142;28;20037;-82
2020/12/04 03:02:48;;;;;;;40.90;16.83;;;-2.40;99.90;;;;;;5051393;28;20036;-82
2020/12/04 03:05:13;;;;;;;38.17;16.70;;;-2.40;99.90;;;;;;5036940;28;20123;-81
2020/12/04 03:07:39;;;;;;;39.83;17.53;;;-2.40;99.90;;;;;;5049046;28;20409;-81
2020/12/04 03:10:06;;;;;;;33.13;14.43;;;-2.40;99.90;;;;;;5052914;28;20108;-81
2020/12/04 03:12:33;;;;;;;41.77;18.27;;;-2.40;99.90;;;;;;5026915;28;20041;-81
2020/12/04 03:15:00;;;;;;;36.63;15.17;;;-2.40;99.90;;;;;;5020653;28;20180;-82
2020/12/04 03:17:30;;;;;;;36.43;17.03;;;-2.40;99.90;;;;;;5035025;28;20026;-82
2020/12/04 03:19:57;;;;;;;32.80;15.20;;;-2.30;99.90;;;;;;5043387;28;20571;-80
2020/12/04 03:22:24;;;;;;;37.33;16.67;;;-2.30;99.90;;;;;;5051058;28;20115;-82
2020/12/04 03:24:49;;;;;;;37.80;17.10;;;-2.30;99.90;;;;;;5053143;28;20029;-83
2020/12/04 03:27:15;;;;;;;34.87;15.93;;;-2.30;99.90;;;;;;5052451;28;20337;-81
2020/12/04 03:29:41;;;;;;;36.10;16.40;;;-2.30;99.90;;;;;;5033454;28;20036;-81
2020/12/04 03:32:07;;;;;;;34.30;16.30;;;-2.30;99.90;;;;;;5046509;28;20025;-82
2020/12/04 03:34:33;;;;;;;38.57;16.87;;;-2.30;99.90;;;;;;5035739;28;20037;-82
2020/12/04 03:36:59;;;;;;;36.37;15.80;;;-2.30;99.90;;;;;;5010685;28;20102;-83
2020/12/04 03:39:25;;;;;;;38.07;16.07;;;-2.20;99.90;;;;;;5034166;28;20041;-82
2020/12/04 03:41:50;;;;;;;36.90;16.67;;;-2.20;99.90;;;;;;5049026;28;20111;-81
2020/12/04 03:44:16;;;;;;;36.23;16.37;;;-2.20;99.90;;;;;;5051814;28;20047;-80
2020/12/04 03:46:44;;;;;;;38.40;16.03;;;-2.20;99.90;;;;;;5031441;28;20456;-82
2020/12/04 03:49:13;;;;;;;33.43;15.13;;;-2.20;99.90;;;;;;5052919;28;20025;-83
2020/12/04 03:51:40;;;;;;;36.28;16.55;;;-2.20;99.90;;;;;;5035012;28;20448;-81
2020/12/04 03:54:06;;;;;;;36.87;16.57;;;-2.20;99.90;;;;;;5037911;28;20029;-81
2020/12/04 03:56:31;;;;;;;28.63;12.23;;;-2.20;99.90;;;;;;5041051;28;20431;-82
2020/12/04 03:58:57;;;;;;;34.93;15.83;;;-2.20;99.90;;;;;;5046956;28;20036;-83
2020/12/04 04:01:23;;;;;;;34.63;15.87;;;-2.20;99.90;;;;;;5032691;28;20119;-81
2020/12/04 04:03:48;;;;;;;35.43;15.07;;;-2.20;99.90;;;;;;5047601;28;20127;-82
2020/12/04 04:06:14;;;;;;;33.97;14.07;;;-2.10;99.90;;;;;;5041382;28;20021;-82
2020/12/04 04:08:40;;;;;;;37.07;15.90;;;-2.10;99.90;;;;;;5053538;28;20021;-81
2020/12/04 04:11:05;;;;;;;36.87;16.40;;;-2.10;99.90;;;;;;5046201;28;20048;-81
2020/12/04 04:13:31;;;;;;;30.70;14.83;;;-2.10;99.90;;;;;;5036382;28;20029;-83
2020/12/04 04:15:57;;;;;;;33.83;14.87;;;-2.00;99.90;;;;;;5052666;28;20069;-81
2020/12/04 04:18:22;;;;;;;32.30;16.07;;;-2.00;99.90;;;;;;5033547;28;20017;-82
2020/12/04 04:20:48;;;;;;;34.53;15.83;;;-2.00;99.90;;;;;;5038418;28;20080;-83
2020/12/04 04:23:13;;;;;;;34.23;15.00;;;-2.00;99.90;;;;;;5049986;28;20427;-81
2020/12/04 04:25:39;;;;;;;30.40;14.87;;;-2.00;99.90;;;;;;5043203;28;20546;-82
2020/12/04 04:28:11;;;;;;;37.07;15.73;;;-2.00;99.90;;;;;;5028856;28;20064;-84
2020/12/04 04:30:41;;;;;;;30.47;14.73;;;-1.90;99.90;;;;;;5051657;28;20052;-82
2020/12/04 04:33:06;;;;;;;34.83;14.57;;;-1.90;99.90;;;;;;5042908;28;20553;-81
2020/12/04 04:35:32;;;;;;;36.83;15.13;;;-1.90;99.90;;;;;;5037944;28;20036;-81
2020/12/04 04:37:59;;;;;;;29.80;14.07;;;-1.90;99.90;;;;;;5033784;28;20054;-82
2020/12/04 04:40:25;;;;;;;31.80;14.60;;;-1.90;99.90;;;;;;5043232;28;20125;-81
2020/12/04 04:43:12;;;;;;;31.23;14.33;;;-1.90;99.90;;;;;;5056695;28;20050;-82
2020/12/04 04:45:42;;;;;;;32.47;14.20;;;-1.80;99.90;;;;;;5046810;28;20033;-83
2020/12/04 04:48:15;;;;;;;;;;;-1.80;99.90;;;;;;5038318;28;20103;-80
2020/12/04 04:50:44;;;;;;;31.93;13.20;;;-1.80;99.90;;;;;;5049512;28;19916;-82
2020/12/04 04:53:11;;;;;;;32.25;14.25;;;-1.70;99.90;;;;;;5019355;28;20029;-81
2020/12/04 04:55:42;;;;;;;25.17;11.87;;;-1.70;99.90;;;;;;5045651;28;20466;-82
2020/12/04 04:58:08;;;;;;;30.87;14.10;;;-1.70;99.90;;;;;;5055840;28;20375;-82
2020/12/04 05:00:35;;;;;;;27.93;12.63;;;-1.70;99.90;;;;;;5046195;28;20033;-82
2020/12/04 05:03:02;;;;;;;27.10;12.90;;;-1.60;99.90;;;;;;5038076;28;20052;-81
2020/12/04 05:05:52;;;;;;;29.47;13.97;;;-1.70;99.90;;;;;;5045097;28;20044;-80
2020/12/04 05:08:19;;;;;;;;;;;-1.60;99.90;;;;;;5038885;28;20025;-83
2020/12/04 05:10:49;;;;;;;26.93;12.73;;;-1.60;99.90;;;;;;5049132;28;20279;-81
2020/12/04 05:13:20;;;;;;;28.07;12.87;;;-1.60;99.90;;;;;;5021675;28;20423;-82
2020/12/04 05:15:46;;;;;;;27.57;12.67;;;-1.60;99.90;;;;;;5058569;28;20037;-82
2020/12/04 05:18:19;;;;;;;28.97;13.83;;;-1.60;99.90;;;;;;5061637;28;20100;-81
2020/12/04 05:20:55;;;;;;;29.00;13.47;;;-1.60;99.90;;;;;;5051602;28;20108;-81
2020/12/04 05:23:22;;;;;;;31.37;13.63;;;-1.60;99.90;;;;;;5059788;28;20055;-80
2020/12/04 05:25:50;;;;;;;28.27;12.63;;;-1.60;99.90;;;;;;5057500;28;20029;-81
2020/12/04 05:28:17;;;;;;;29.50;13.00;;;-1.60;99.90;;;;;;5052989;28;20029;-81
2020/12/04 05:30:49;;;;;;;33.40;13.30;;;-1.60;99.90;;;;;;5028171;28;20025;-81
2020/12/04 05:33:15;;;;;;;27.13;13.53;;;-1.60;99.90;;;;;;5059889;28;20035;-82
2020/12/04 05:35:41;;;;;;;25.67;12.77;;;-1.60;99.90;;;;;;5069945;28;20021;-80
2020/12/04 05:38:17;;;;;;;25.53;12.27;;;-1.60;99.90;;;;;;5044906;28;20025;-80
2020/12/04 05:40:46;;;;;;;27.60;12.50;;;-1.50;99.90;;;;;;5052407;28;20036;-81
2020/12/04 05:43:13;;;;;;;28.67;12.83;;;-1.50;99.90;;;;;;5050087;28;20025;-80
2020/12/04 05:45:39;;;;;;;25.90;12.77;;;-1.50;99.90;;;;;;5055433;28;20036;-81
2020/12/04 05:48:15;;;;;;;29.50;12.47;;;-1.50;99.90;;;;;;5036283;28;20081;-81
2020/12/04 05:50:42;;;;;;;25.73;11.37;;;-1.40;99.90;;;;;;5038613;28;20029;-81
2020/12/04 05:53:09;;;;;;;24.43;12.07;;;-1.30;99.90;;;;;;5042209;28;20464;-79
2020/12/04 05:55:36;;;;;;;28.90;12.33;;;-1.30;99.90;;;;;;5040058;28;20029;-88
2020/12/04 05:58:07;;;;;;;28.20;12.57;;;-1.30;99.90;;;;;;5038742;28;20408;-88
2020/12/04 06:00:36;;;;;;;27.17;11.87;;;-1.20;99.90;;;;;;5033742;28;20036;-89
2020/12/04 06:03:15;;;;;;;28.80;11.82;;;-1.20;99.90;;;;;;5039083;28;20020;-90
2020/12/04 06:05:49;;;;;;;25.73;12.50;;;-1.10;99.90;;;;;;5051141;28;20392;-86
2020/12/04 06:08:16;;;;;;;24.73;11.97;;;-1.10;99.90;;;;;;5041580;28;20033;-83
2020/12/04 06:10:41;;;;;;;25.37;11.67;;;-1.10;99.90;;;;;;5029061;28;20033;-78
2020/12/04 06:13:07;;;;;;;26.03;11.83;;;-1.00;99.90;;;;;;5043664;28;20021;-78
2020/12/04 06:15:34;;;;;;;23.17;12.33;;;-1.00;99.90;;;;;;5048708;28;20484;-79
2020/12/04 06:18:08;;;;;;;28.47;11.90;;;-1.00;99.90;;;;;;5048022;28;20021;-78
2020/12/04 06:20:51;;;;;;;25.43;11.33;;;-1.00;99.90;;;;;;5049281;28;20095;-77
2020/12/04 06:23:18;;;;;;;23.80;12.07;;;-1.00;99.90;;;;;;5043067;28;20506;-76
2020/12/04 06:26:10;;;;;;;24.53;11.43;;;-0.90;99.90;;;;;;5047488;28;20072;-78
2020/12/04 06:28:40;;;;;;;22.73;11.10;;;-0.90;99.90;;;;;;4960205;28;20271;-77
2020/12/04 06:31:12;;;;;;;24.07;11.77;;;-0.90;99.90;;;;;;4965376;28;20042;-77
2020/12/04 06:33:49;;;;;;;26.57;11.43;;;-0.80;99.90;;;;;;4960082;28;20100;-78
2020/12/04 06:36:30;;;;;;;24.30;11.33;;;-0.80;99.90;;;;;;4971021;28;20083;-78
2020/12/04 06:38:56;;;;;;;25.23;11.40;;;-0.70;99.90;;;;;;4954381;29;20046;-80
2020/12/04 06:41:27;;;;;;;26.17;12.23;;;-0.80;99.90;;;;;;4956805;28;20464;-79
2020/12/04 06:44:16;;;;;;;26.67;11.80;;;-0.70;99.90;;;;;;4956003;28;20042;-76
2020/12/04 06:46:45;;;;;;;24.50;12.55;;;-0.80;99.90;;;;;;4953428;29;20043;-76
2020/12/04 06:49:22;;;;;;;24.57;11.27;;;-0.80;99.90;;;;;;4955518;28;20031;-75
2020/12/04 06:52:14;;;;;;;24.07;11.43;;;-0.80;99.90;;;;;;4955461;28;20037;-76
2020/12/04 06:54:47;;;;;;;25.13;11.93;;;-0.80;99.90;;;;;;4966357;28;20032;-76
2020/12/04 06:57:18;;;;;;;27.87;11.27;;;-0.70;99.90;;;;;;4964568;28;20035;-75
2020/12/04 06:59:44;;;;;;;24.57;11.60;;;-0.80;99.90;;;;;;4961109;28;20046;-74
2020/12/04 07:02:21;;;;;;;24.07;10.87;;;-0.70;99.90;;;;;;4961861;28;20035;-74
2020/12/04 07:04:52;;;;;;;24.60;11.80;;;-0.60;99.90;;;;;;4977784;28;20397;-74
2020/12/04 07:07:20;;;;;;;22.57;11.33;;;-0.60;99.90;;;;;;5043997;28;20078;-76
2020/12/04 07:09:57;;;;;;;23.20;10.77;;;-0.60;99.90;;;;;;5040538;28;20531;-75
2020/12/04 07:12:26;;;;;;;25.77;10.73;;;-0.50;99.90;;;;;;5041902;28;20032;-75
2020/12/04 07:14:53;;;;;;;21.13;10.45;;;-0.50;99.90;;;;;;5034768;28;20084;-75
2020/12/04 07:17:21;;;;;;;21.93;10.67;;;-0.40;99.90;;;;;;5042810;28;20028;-75
2020/12/04 07:19:51;;;;;;;24.07;9.10;;;-0.40;99.90;;;;;;5053028;28;20033;-74
2020/12/04 07:22:21;;;;;;;25.83;11.60;;;-0.30;99.90;;;;;;5033441;28;20575;-76
2020/12/04 07:24:48;;;;;;;26.88;11.40;;;-0.30;99.90;;;;;;5035533;28;20025;-76
2020/12/04 07:27:16;;;;;;;23.57;11.33;;;-0.30;99.90;;;;;;5034572;28;20030;-78
2020/12/04 07:29:41;;;;;;;26.77;12.03;;;-0.20;99.90;;;;;;5036996;28;20032;-77
2020/12/04 07:32:07;;;;;;;28.60;11.83;;;-0.20;99.90;;;;;;5040959;28;20033;-75
2020/12/04 07:34:36;;;;;;;27.90;11.80;;;-0.10;99.90;;;;;;5032751;28;20025;-75
2020/12/04 07:37:03;;;;;;;29.80;11.63;;;-0.10;99.90;;;;;;5033134;28;20380;-76
2020/12/04 07:39:33;;;;;;;24.17;10.93;;;0.00;99.90;;;;;;5047447;28;20440;-77
2020/12/04 07:42:00;;;;;;;22.23;9.73;;;0.00;99.90;;;;;;5052753;28;20082;-76
2020/12/04 07:44:27;;;;;;;22.10;10.00;;;0.20;99.90;;;;;;5053803;28;20116;-76
2020/12/04 07:47:01;;;;;;;20.63;9.87;;;0.20;99.90;;;;;;5052806;28;20025;-77
2020/12/04 07:49:27;;;;;;;25.17;10.13;;;0.20;99.90;;;;;;5043384;28;20064;-75
2020/12/04 07:51:53;;;;;;;24.37;11.20;;;0.30;99.90;;;;;;5033245;28;20036;-76
2020/12/04 07:54:22;;;;;;;23.73;9.93;;;0.30;99.90;;;;;;5035979;28;20030;-77
2020/12/04 07:56:54;;;;;;;20.48;10.18;;;0.30;99.90;;;;;;5014856;28;20024;-76
2020/12/04 07:59:24;;;;;;;22.40;9.80;;;0.40;99.90;;;;;;5033728;28;20074;-76
2020/12/04 08:01:50;;;;;;;18.63;9.60;;;0.40;99.90;;;;;;5032542;28;20057;-76
2020/12/04 08:04:19;;;;;;;22.60;10.37;;;0.40;99.90;;;;;;5032256;28;20068;-74
2020/12/04 08:06:48;;;;;;;21.92;9.77;;;0.50;99.90;;;;;;5032578;28;20026;-76
2020/12/04 08:09:16;;;;;;;21.65;10.23;;;0.50;99.90;;;;;;5032357;28;20057;-76
2020/12/04 08:11:54;;;;;;;22.77;10.13;;;0.50;99.90;;;;;;5034121;28;20030;-77
2020/12/04 08:14:28;;;;;;;19.87;9.90;;;0.50;99.90;;;;;;5034313;28;20053;-75
2020/12/04 08:16:57;;;;;;;24.93;11.37;;;0.50;99.90;;;;;;5032063;28;20025;-77
2020/12/04 08:19:23;;;;;;;;;;;0.50;99.90;;;;;;5032830;28;20109;-76
2020/12/04 08:22:06;;;;;;;23.97;10.90;;;0.60;99.90;;;;;;5031982;28;19921;-76
2020/12/04 08:25:02;;;;;;;20.88;10.20;;;0.60;99.90;;;;;;5032282;28;20396;-77
2020/12/04 08:27:29;;;;;;;22.27;11.23;;;0.60;99.90;;;;;;5032530;28;20029;-77
2020/12/04 08:30:14;;;;;;;21.58;9.80;;;0.70;99.90;;;;;;5032063;28;20455;-76
2020/12/04 08:32:40;;;;;;;22.67;10.90;;;0.70;99.90;;;;;;5046442;28;20033;-76
2020/12/04 08:35:19;;;;;;;19.70;9.27;;;0.70;99.90;;;;;;5052309;28;20091;-77
2020/12/04 08:37:45;;;;;;;21.53;10.37;;;0.80;99.90;;;;;;5052591;28;20100;-76
2020/12/04 08:40:31;;;;;;;22.50;10.03;;;0.80;99.90;;;;;;5052091;28;20032;-77
2020/12/04 08:43:16;;;;;;;20.37;9.67;;;0.90;99.90;;;;;;5041189;28;20025;-76
2020/12/04 08:45:44;;;;;;;19.93;9.97;;;0.90;99.90;;;;;;5032220;28;20034;-76
2020/12/04 08:48:15;;;;;;;17.43;8.40;;;1.00;99.90;;;;;;5032350;28;20022;-76
2020/12/04 08:50:46;;;;;;;20.17;9.03;;;1.10;99.90;;;;;;5031560;28;20060;-77
2020/12/04 08:53:14;;;;;;;16.38;8.45;;;1.10;99.90;;;;;;5038625;28;20135;-77
2020/12/04 08:55:56;;;;;;;20.38;8.80;;;1.10;99.90;;;;;;5033978;28;20032;-77
2020/12/04 08:58:23;;;;;;;16.27;7.72;;;1.20;99.90;;;;;;5051800;28;20021;-77
2020/12/04 09:00:50;;;;;;;15.35;7.85;;;1.30;99.90;;;;;;5052206;28;20061;-77
2020/12/04 09:03:18;;;;;;;18.27;8.70;;;1.30;99.90;;;;;;5050038;28;20055;-76
2020/12/04 09:05:44;;;;;;;18.38;8.45;;;1.40;99.90;;;;;;5033486;28;20036;-75
2020/12/04 09:08:09;;;;;;;18.88;8.27;;;1.50;99.90;;;;;;5035099;28;20026;-76
2020/12/04 09:10:36;;;;;;;16.20;8.18;;;1.50;99.90;;;;;;5017357;28;20103;-76
2020/12/04 09:13:02;;;;;;;17.40;8.07;;;1.60;99.90;;;;;;5038254;28;20017;-75
2020/12/04 09:15:29;;;;;;;16.00;7.40;;;1.60;99.90;;;;;;5055206;28;20040;-75
2020/12/04 09:17:54;;;;;;;22.38;8.05;;;1.70;99.90;;;;;;5037502;28;20032;-76
2020/12/04 09:20:20;;;;;;;18.35;7.50;;;1.60;99.90;;;;;;5054656;28;20049;-76
2020/12/04 09:22:46;;;;;;;20.15;8.57;;;1.70;99.90;;;;;;5054055;28;20035;-76
2020/12/04 09:25:13;;;;;;;17.35;7.40;;;1.70;99.90;;;;;;5053880;28;20469;-76
2020/12/04 09:27:40;;;;;;;16.17;7.72;;;1.70;99.90;;;;;;5055490;28;20534;-75
2020/12/04 09:30:07;;;;;;;13.90;6.53;;;1.80;99.90;;;;;;5055012;28;20098;-76
2020/12/04 09:32:33;;;;;;;14.38;7.20;;;1.90;99.90;;;;;;5044908;28;20035;-76
2020/12/04 09:34:59;;;;;;;20.02;5.90;;;1.90;99.90;;;;;;5046764;28;20021;-76
2020/12/04 09:37:28;;;;;;;12.75;6.22;;;2.10;99.90;;;;;;5054119;28;20037;-76
2020/12/04 09:39:56;;;;;;;14.77;6.22;;;2.10;99.90;;;;;;5055282;28;20021;-76
2020/12/04 09:42:24;;;;;;;14.82;6.60;;;2.10;99.90;;;;;;5055106;28;20063;-76
2020/12/04 09:44:51;;;;;;;15.25;5.75;;;2.20;99.90;;;;;;5053200;28;20427;-77
2020/12/04 09:47:17;;;;;;;13.05;7.20;;;2.30;99.90;;;;;;5054380;28;20031;-77
2020/12/04 09:49:44;;;;;;;15.13;7.30;;;2.40;99.90;;;;;;5054471;28;20029;-77
2020/12/04 09:52:11;;;;;;;17.23;7.50;;;2.40;99.90;;;;;;5036276;28;20459;-76
2020/12/04 09:54:40;;;;;;;17.75;8.10;;;2.50;99.90;;;;;;5037093;28;20053;-77
2020/12/04 09:57:07;;;;;;;15.97;7.97;;;2.60;99.90;;;;;;5052870;28;20025;-76
2020/12/04 09:59:33;;;;;;;20.48;8.98;;;2.60;99.90;;;;;;5054064;28;20263;-76
2020/12/04 10:02:00;;;;;;;20.05;9.23;;;2.60;99.90;;;;;;5036140;28;20131;-75
2020/12/04 10:04:26;;;;;;;20.75;9.35;;;2.70;99.90;;;;;;5054312;28;20028;-79
2020/12/04 10:06:52;;;;;;;23.00;9.48;;;2.70;99.90;;;;;;5029009;28;20037;-76
2020/12/04 10:09:19;;;;;;;21.42;9.50;;;2.70;99.90;;;;;;5035238;28;20037;-76
2020/12/04 10:11:46;;;;;;;22.67;9.10;;;2.60;99.90;;;;;;5034806;28;20025;-77
2020/12/04 10:14:13;;;;;;;19.65;8.88;;;2.60;99.90;;;;;;5050509;28;20025;-76
2020/12/04 10:16:39;;;;;;;19.50;9.60;;;2.60;99.90;;;;;;5054533;28;20025;-77
2020/12/04 10:19:05;;;;;;;15.95;8.52;;;2.60;99.90;;;;;;5056265;28;20040;-77
2020/12/04 10:21:36;;;;;;;17.40;9.07;;;2.60;99.90;;;;;;5033148;28;20443;-76
2020/12/04 10:24:05;;;;;;;17.75;9.18;;;2.60;99.90;;;;;;5026066;28;20025;-76
2020/12/04 10:26:31;;;;;;;19.10;8.75;;;2.60;99.90;;;;;;5019768;28;20076;-77
2020/12/04 10:28:57;;;;;;;21.98;8.80;;;2.60;99.90;;;;;;5017326;28;20058;-76
2020/12/04 10:31:23;;;;;;;19.80;9.07;;;2.60;99.90;;;;;;5015977;28;20033;-76
2020/12/04 10:33:49;;;;;;;19.15;8.15;;;2.60;99.90;;;;;;5030620;28;20424;-77
2020/12/04 10:36:15;;;;;;;16.77;7.90;;;2.60;99.90;;;;;;5033285;28;20048;-75
2020/12/04 10:38:42;;;;;;;15.18;7.95;;;2.70;99.90;;;;;;5033775;28;20431;-77
2020/12/04 10:41:08;;;;;;;16.52;8.48;;;2.70;99.90;;;;;;5033701;28;20400;-75
2020/12/04 10:43:35;;;;;;;16.55;8.63;;;2.70;99.90;;;;;;5034426;28;20021;-76
2020/12/04 10:46:01;;;;;;;18.23;7.95;;;2.70;99.90;;;;;;5023133;28;20026;-76
2020/12/04 10:48:27;;;;;;;17.77;7.90;;;2.70;99.90;;;;;;5023811;28;20048;-75
2020/12/04 10:50:52;;;;;;;18.80;8.60;;;2.70;99.90;;;;;;5014924;28;20053;-77
2020/12/04 10:53:19;;;;;;;18.48;9.02;;;2.70;99.90;;;;;;5013992;28;20045;-76
2020/12/04 10:55:45;;;;;;;21.88;9.23;;;2.70;99.90;;;;;;5017100;28;20022;-76
2020/12/04 10:58:11;;;;;;;19.98;8.07;;;2.80;99.90;;;;;;5016124;28;20025;-77
2020/12/04 11:00:38;;;;;;;19.48;9.20;;;2.80;99.90;;;;;;5015478;28;20444;-76
2020/12/04 11:03:15;;;;;;;18.63;8.45;;;2.80;99.90;;;;;;5015372;28;20029;-77
2020/12/04 11:05:42;;;;;;;19.50;8.05;;;2.90;99.90;;;;;;5014327;28;20026;-76
2020/12/04 11:08:08;;;;;;;16.20;8.30;;;2.90;99.90;;;;;;5029908;28;20037;-76
2020/12/04 11:10:35;;;;;;;17.48;8.00;;;3.00;99.90;;;;;;5034620;28;20025;-78
2020/12/04 11:13:01;;;;;;;13.73;7.15;;;3.10;99.90;;;;;;5032335;28;20025;-76
2020/12/04 11:15:27;;;;;;;15.35;6.78;;;3.10;99.90;;;;;;5033302;28;20368;-77
2020/12/04 11:17:53;;;;;;;20.27;7.45;;;3.20;99.90;;;;;;5025054;28;20548;-77
2020/12/04 11:20:23;;;;;;;17.75;7.13;;;3.30;99.90;;;;;;5018908;28;20121;-76
2020/12/04 11:22:49;;;;;;;16.77;6.90;;;3.30;99.90;;;;;;5032668;28;20026;-76
2020/12/04 11:25:16;;;;;;;15.95;7.80;;;3.40;99.90;;;;;;5032613;28;20040;-77
2020/12/04 11:27:46;;;;;;;19.60;7.30;;;3.60;99.90;;;;;;5033436;28;20025;-77
2020/12/04 11:30:14;;;;;;;14.25;6.90;;;3.70;99.90;;;;;;5048471;28;20037;-76
2020/12/04 11:32:40;;;;;;;13.98;7.03;;;3.80;99.90;;;;;;5042231;28;20025;-76
2020/12/04 11:35:08;;;;;;;15.15;6.57;;;4.00;99.90;;;;;;5032446;28;20040;-77
2020/12/04 11:37:35;;;;;;;14.80;6.93;;;4.00;99.90;;;;;;5044616;28;20017;-76
2020/12/04 11:40:02;;;;;;;13.75;6.10;;;4.20;99.90;;;;;;5036936;28;20039;-78
2020/12/04 11:42:28;;;;;;;14.45;6.85;;;4.20;99.90;;;;;;5031582;28;20037;-77
2020/12/04 11:44:55;;;;;;;13.30;7.15;;;4.30;99.90;;;;;;5032231;28;20030;-76
2020/12/04 11:47:21;;;;;;;13.75;6.38;;;4.40;99.90;;;;;;5031874;28;20029;-77
2020/12/04 11:49:47;;;;;;;18.60;7.07;;;4.50;99.90;;;;;;5015054;28;20456;-76
2020/12/04 11:52:12;;;;;;;13.65;6.47;;;4.80;99.90;;;;;;5031361;28;20026;-76
2020/12/04 11:54:38;;;;;;;16.02;6.78;;;4.90;99.90;;;;;;5032179;28;20045;-76
2020/12/04 11:57:03;;;;;;;16.50;7.47;;;5.10;99.90;;;;;;5033013;28;20029;-77
2020/12/04 11:59:29;;;;;;;13.55;6.82;;;5.20;99.90;;;;;;5031997;28;20495;-78
2020/12/04 12:01:56;;;;;;;16.63;7.05;;;5.20;99.90;;;;;;5033503;28;20487;-76
2020/12/04 12:04:22;;;;;;;16.50;7.63;;;5.40;99.90;;;;;;5032013;28;20026;-76
2020/12/04 12:06:47;;;;;;;17.48;8.15;;;5.40;99.90;;;;;;5031927;28;20079;-76
2020/12/04 12:09:13;;;;;;;22.10;8.75;;;5.60;99.90;;;;;;5033238;28;20021;-79
2020/12/04 12:11:39;;;;;;;15.85;7.60;;;5.70;99.90;;;;;;5037735;28;20041;-76
2020/12/04 12:14:04;;;;;;;15.15;7.53;;;5.70;99.90;;;;;;5036188;28;20025;-74
2020/12/04 12:16:30;;;;;;;20.23;8.20;;;5.70;99.90;;;;;;5032712;28;20025;-78
2020/12/04 12:18:56;;;;;;;18.65;8.10;;;5.60;99.90;;;;;;5032143;28;20545;-76
2020/12/04 12:21:22;;;;;;;14.52;7.20;;;5.60;99.90;;;;;;5012671;28;20064;-76
2020/12/04 12:23:47;;;;;;;15.18;7.28;;;5.60;99.90;;;;;;5032072;28;20014;-76
2020/12/04 12:26:13;;;;;;;16.25;7.85;;;5.50;99.90;;;;;;5031944;28;20430;-78
2020/12/04 12:28:42;;;;;;;17.15;7.95;;;5.60;99.90;;;;;;5031802;28;20037;-77
2020/12/04 12:31:08;;;;;;;16.27;7.95;;;5.60;99.90;;;;;;5031807;28;20025;-78
2020/12/04 12:33:58;;;;;;;16.95;7.97;;;5.60;99.90;;;;;;5015792;28;20022;-78
2020/12/04 12:36:24;;;;;;;20.30;8.73;;;5.60;99.90;;;;;;4970356;28;20628;-77
2020/12/04 12:38:52;;;;;;;18.08;7.95;;;5.70;99.90;;;;;;4974128;28;20042;-75
2020/12/04 12:41:19;;;;;;;17.05;7.80;;;5.60;99.90;;;;;;4973143;28;20592;-76